Capitol Logistics 401


KSEA
Seattle-Tacoma International Airport
Seattle, Washington, US
KMIA
Miami International Airport
Miami, Florida, US

Route Details

Aircraft Information
Primary: Boeing 757-200SF
Backup: Not Available
Route Data
Distance: 2411nm
Sched. Duration: 5h 40m
Avg. Duration: 5h 24m (-16m)
Times Flown: 5
Recm'd Route: SEA NORMY J90 MWH DLN DDY BFF SGF MEM MGM SZW PLYER JUULI SSCOT5
Planned Altitude: 35,000ft
Origin Wx: KSEA 231516Z 25017G35KT 6SM -RA BR SCT018 OVC027 06/04 A2984 RMK AO2 PK WND 25042/1502 WSHFT 1454 P0012 T00610039
Dest. Wx: KMIA 231453Z 06012G20KT 10SM FEW035 SCT045 23/11 A3022 RMK AO2 SLP231 T02280111 51015
Notes:

Financial History
Total Freight: 529,275lbs
Average Load: 105,855lbs/flt
Fuel Used: 300,850lbs
Avg. Fuel Used: 60,170lbs/flt
Fuel Expense: $336,952
Avg. Fuel Expense: $67,390
Avg. Fuel Cost: $1.12/lbs
Total Gross Income: $889,372
Pilot Pay: $905
Total Expenses: $96,312
Total Revenue: $450,162
Average Revenue: $177,874.46